createdAt,value
2019-03-03T00:01:05.941Z,43.25
2019-03-03T00:07:08.168Z,51.30
2019-03-03T00:13:10.362Z,33.10
2019-03-03T00:19:12.521Z,45.60
2019-03-03T00:25:15.119Z,44.63
2019-03-03T00:31:29.976Z,43.28
2019-03-03T00:37:38.951Z,43.15
2019-03-03T00:43:52.099Z,51.23
2019-03-03T00:49:56.437Z,53.30
2019-03-03T00:56:01.695Z,41.42
2019-03-03T01:02:06.925Z,48.50
2019-03-03T01:08:28.071Z,54.25
2019-03-03T01:14:48.923Z,39.98
2019-03-03T01:20:53.038Z,39.25
2019-03-03T01:26:55.387Z,46.95
2019-03-03T01:32:57.585Z,43.55
2019-03-03T01:38:59.846Z,44.58
2019-03-03T01:45:02.089Z,43.75
2019-03-03T01:51:04.479Z,38.10
2019-03-03T01:57:06.788Z,46.20
2019-03-03T02:03:09.143Z,43.50
2019-03-03T02:09:11.433Z,54.10
2019-03-03T02:15:14.133Z,50.75
2019-03-03T02:21:16.410Z,59.05
2019-03-03T02:27:18.788Z,43.08
2019-03-03T02:33:21.365Z,49.95
2019-03-03T02:39:23.888Z,56.15
2019-03-03T02:45:26.034Z,46.15
2019-03-03T02:51:28.477Z,35.08
2019-03-03T02:57:30.617Z,44.08
2019-03-03T03:03:32.877Z,38.92
2019-03-03T03:09:38.149Z,37.05
2019-03-03T03:15:45.141Z,48.30
2019-03-03T03:22:01.469Z,41.20
2019-03-03T03:28:17.773Z,33.58
2019-03-03T03:34:24.602Z,39.13
2019-03-03T03:40:37.473Z,39.73
2019-03-03T03:46:41.526Z,58.73
2019-03-03T03:52:45.589Z,39.40
2019-03-03T03:58:49.624Z,33.55
2019-03-03T04:05:12.601Z,37.98
2019-03-03T04:11:17.740Z,35.65
2019-03-03T04:17:24.464Z,47.55
2019-03-03T04:23:31.260Z,39.00
2019-03-03T04:29:39.279Z,33.65
2019-03-03T04:35:49.313Z,48.65
2019-03-03T04:41:59.475Z,35.60
2019-03-03T04:48:06.568Z,45.70
2019-03-03T04:54:16.718Z,38.38
2019-03-03T05:00:20.816Z,48.70
2019-03-03T05:06:25.060Z,50.10
2019-03-03T05:12:29.312Z,49.80
2019-03-03T05:18:33.433Z,39.03
2019-03-03T05:24:35.573Z,35.68
2019-03-03T05:30:37.724Z,33.65
2019-03-03T05:36:39.867Z,31.93
2019-03-03T05:42:42.154Z,34.53
2019-03-03T05:48:46.426Z,31.95
2019-03-03T05:54:48.573Z,34.05
2019-03-03T06:00:50.706Z,17.75
2019-03-03T06:06:53.093Z,21.35
2019-03-03T06:12:55.320Z,14.15
2019-03-03T06:18:57.642Z,11.08
2019-03-03T06:24:59.836Z,9.83
2019-03-03T06:31:01.986Z,12.78
2019-03-03T06:37:04.334Z,8.30
2019-03-03T06:43:06.612Z,10.95
2019-03-03T06:49:08.783Z,7.83
2019-03-03T06:55:12.142Z,10.23
2019-03-03T07:01:14.491Z,7.87
2019-03-03T07:07:16.792Z,7.47
2019-03-03T07:13:18.974Z,7.33
2019-03-03T07:19:21.256Z,7.62
2019-03-03T07:25:25.535Z,7.00
2019-03-03T07:31:28.909Z,6.12
2019-03-03T07:37:33.240Z,7.58
2019-03-03T07:43:35.668Z,6.33
2019-03-03T07:49:37.916Z,6.17
2019-03-03T07:55:40.136Z,6.78
2019-03-03T08:01:42.423Z,6.05
2019-03-03T08:07:45.790Z,8.08
2019-03-03T08:13:48.058Z,7.03
2019-03-03T08:19:51.321Z,7.20
2019-03-03T08:25:53.702Z,6.20
2019-03-03T08:31:56.087Z,6.35
2019-03-03T08:37:58.598Z,5.17
2019-03-03T08:44:02.760Z,4.67
2019-03-03T08:50:13.915Z,3.83
2019-03-03T08:56:21.029Z,4.37
2019-03-03T09:02:27.296Z,4.60
2019-03-03T09:08:34.379Z,5.03
2019-03-03T09:14:47.557Z,4.08
2019-03-03T09:20:54.548Z,5.30
2019-03-03T09:26:59.637Z,3.30
2019-03-03T09:33:15.471Z,3.77
2019-03-03T09:39:19.581Z,3.17
2019-03-03T09:45:23.667Z,4.53
2019-03-03T09:51:43.060Z,2.83
2019-03-03T09:58:02.440Z,4.08
2019-03-03T10:04:06.697Z,4.35
2019-03-03T10:10:13.680Z,3.40
2019-03-03T10:16:35.780Z,4.05
2019-03-03T10:22:42.897Z,4.05
2019-03-03T10:29:02.934Z,3.22
2019-03-03T10:35:16.325Z,5.15
2019-03-03T10:41:37.286Z,2.98
2019-03-03T10:47:53.576Z,3.42
2019-03-03T10:54:14.942Z,5.92
2019-03-03T11:00:31.178Z,5.22
2019-03-03T11:06:44.586Z,5.12
2019-03-03T11:12:49.320Z,3.98
2019-03-03T11:19:05.404Z,3.95
2019-03-03T11:25:09.494Z,5.12
2019-03-03T11:31:25.833Z,4.17
2019-03-03T11:37:33.180Z,7.45
2019-03-03T11:43:43.200Z,2.67
2019-03-03T11:49:47.291Z,5.95
2019-03-03T11:55:51.396Z,5.12
2019-03-03T12:02:04.879Z,4.78
2019-03-03T12:08:09.015Z,3.95
2019-03-03T12:14:31.847Z,4.85
2019-03-03T12:20:44.760Z,5.12
2019-03-03T12:26:51.827Z,4.53
2019-03-03T12:33:02.064Z,4.05
2019-03-03T12:39:08.681Z,4.65
2019-03-03T12:45:31.125Z,5.97
2019-03-03T12:51:38.182Z,4.37
2019-03-03T12:58:01.220Z,3.85
2019-03-03T13:04:08.314Z,3.95
2019-03-03T13:10:15.202Z,4.85
2019-03-03T13:16:19.351Z,3.55
2019-03-03T13:22:29.544Z,3.80
2019-03-03T13:28:39.305Z,3.67
2019-03-03T13:34:46.410Z,2.67
2019-03-03T13:41:02.423Z,2.62
2019-03-03T13:47:04.876Z,3.55
2019-03-03T13:53:07.099Z,4.28
2019-03-03T13:59:09.450Z,2.60
2019-03-03T14:05:11.732Z,2.33
2019-03-03T14:11:14.147Z,2.02
2019-03-03T14:17:16.407Z,2.60
2019-03-03T14:23:18.642Z,1.60
2019-03-03T14:29:21.299Z,2.10
2019-03-03T14:35:23.631Z,1.85
2019-03-03T14:41:25.853Z,2.42
2019-03-03T14:47:28.025Z,2.15
2019-03-03T14:53:30.222Z,3.12
2019-03-03T14:59:32.461Z,2.60
2019-03-03T15:05:37.144Z,1.90
2019-03-03T15:11:39.447Z,2.85
2019-03-03T15:17:41.635Z,1.65
2019-03-03T15:23:44.099Z,1.92
2019-03-03T15:29:47.101Z,1.85
2019-03-03T15:35:49.570Z,2.00
2019-03-03T15:41:52.252Z,1.55
2019-03-03T15:47:54.597Z,1.52
2019-03-03T15:53:57.004Z,2.12
2019-03-03T15:59:59.314Z,1.82
2019-03-03T16:06:01.660Z,1.85
2019-03-03T16:12:07.260Z,1.80
2019-03-03T16:18:10.282Z,4.87
2019-03-03T16:24:12.585Z,12.90
2019-03-03T16:30:18.003Z,13.68
2019-03-03T16:36:20.612Z,5.33
2019-03-03T16:42:23.001Z,9.30
2019-03-03T16:48:25.841Z,3.62
2019-03-03T16:54:30.412Z,4.08
2019-03-03T17:00:33.269Z,5.45
2019-03-03T17:06:36.187Z,4.40
2019-03-03T17:12:38.674Z,3.65
2019-03-03T17:18:41.266Z,4.22
2019-03-03T17:24:43.984Z,5.47
2019-03-03T17:30:46.264Z,4.83
2019-03-03T17:36:48.605Z,7.37
2019-03-03T17:42:50.823Z,12.50
2019-03-03T17:48:53.084Z,6.87
2019-03-03T17:54:55.536Z,7.45
2019-03-03T18:00:57.786Z,8.58
2019-03-03T18:06:59.979Z,9.10
2019-03-03T18:13:02.178Z,7.95
2019-03-03T18:19:05.187Z,8.70
2019-03-03T18:25:08.656Z,10.00
2019-03-03T18:31:11.316Z,14.53
2019-03-03T18:37:13.783Z,10.15
2019-03-03T18:43:15.973Z,8.28
2019-03-03T18:49:18.274Z,6.05
2019-03-03T18:55:20.538Z,14.30
2019-03-03T19:01:23.840Z,26.37
2019-03-03T19:07:26.168Z,24.60
2019-03-03T19:13:29.320Z,11.22
2019-03-03T19:19:31.679Z,12.23
2019-03-03T19:25:33.944Z,8.73
2019-03-03T19:31:37.572Z,8.90
2019-03-03T19:37:40.495Z,7.30
2019-03-03T19:43:42.805Z,9.20
2019-03-03T19:49:45.397Z,9.00
2019-03-03T19:55:47.771Z,7.92
2019-03-03T20:01:53.135Z,9.28
2019-03-03T20:07:55.647Z,13.60
2019-03-03T20:14:00.263Z,10.98
2019-03-03T20:20:03.010Z,14.70
2019-03-03T20:26:06.195Z,9.75
2019-03-03T20:32:08.519Z,8.78
2019-03-03T20:38:10.702Z,6.78
2019-03-03T20:44:13.149Z,6.72
2019-03-03T20:50:17.588Z,9.13
2019-03-03T20:56:19.776Z,7.35
2019-03-03T21:02:21.993Z,8.53
2019-03-03T21:08:24.233Z,8.53
2019-03-03T21:14:27.070Z,7.67
2019-03-03T21:20:30.741Z,5.95
2019-03-03T21:26:33.027Z,7.10
2019-03-03T21:32:35.280Z,5.58
2019-03-03T21:38:37.687Z,7.83
2019-03-03T21:44:39.988Z,7.15
2019-03-03T21:50:42.186Z,5.80
2019-03-03T21:56:44.471Z,6.33
2019-03-03T22:02:47.740Z,7.83
2019-03-03T22:08:51.079Z,6.20
2019-03-03T22:14:54.357Z,7.65
2019-03-03T22:20:57.623Z,6.35
2019-03-03T22:26:59.957Z,4.97
2019-03-03T22:33:03.336Z,7.37
2019-03-03T22:39:06.792Z,7.95
2019-03-03T22:45:10.562Z,6.30
2019-03-03T22:51:12.700Z,6.75
2019-03-03T22:57:14.934Z,6.90
2019-03-03T23:03:25.102Z,7.80
2019-03-03T23:09:56.292Z,6.78
2019-03-03T23:16:35.412Z,8.55
2019-03-03T23:23:17.585Z,7.47
2019-03-03T23:29:19.761Z,9.48
2019-03-03T23:35:21.907Z,11.10
2019-03-03T23:41:26.168Z,8.18
2019-03-03T23:47:28.403Z,7.33
2019-03-03T23:53:30.578Z,10.25
2019-03-03T23:59:32.756Z,9.50
